createdAt,value
2022-09-21T00:00:48.559Z,99.52
2022-09-21T00:01:51.004Z,99.69
2022-09-21T00:02:55.776Z,99.75
2022-09-21T00:04:01.152Z,99.92
2022-09-21T00:05:03.318Z,100.00
2022-09-21T00:06:07.529Z,99.92
2022-09-21T00:07:10.506Z,100.00
2022-09-21T00:08:13.657Z,100.00
2022-09-21T00:09:15.757Z,100.00
2022-09-21T00:10:20.344Z,100.00
2022-09-21T00:11:25.474Z,100.00
2022-09-21T00:12:27.400Z,100.00
2022-09-21T00:13:29.638Z,100.00
2022-09-21T00:14:31.794Z,100.00
2022-09-21T00:15:34.219Z,100.00
2022-09-21T00:16:36.495Z,100.00
2022-09-21T00:17:38.591Z,100.00
2022-09-21T00:18:40.860Z,100.00
2022-09-21T00:19:42.876Z,100.00
2022-09-21T00:20:44.854Z,100.00
2022-09-21T00:21:47.242Z,100.00
2022-09-21T00:22:49.415Z,100.00
2022-09-21T00:23:51.349Z,100.00
2022-09-21T00:24:53.066Z,100.00
2022-09-21T00:26:07.418Z,100.00
2022-09-21T00:27:09.358Z,100.00
2022-09-21T00:28:11.294Z,100.00
2022-09-21T00:29:13.216Z,100.00
2022-09-21T00:30:15.760Z,100.00
2022-09-21T00:31:17.699Z,100.00
2022-09-21T00:32:19.541Z,100.00
2022-09-21T00:33:21.394Z,100.00
2022-09-21T00:34:23.353Z,100.00
2022-09-21T00:35:25.429Z,100.00
2022-09-21T00:36:27.997Z,100.00
2022-09-21T00:37:30.363Z,100.00
2022-09-21T00:38:33.563Z,100.00
2022-09-21T00:39:35.517Z,100.00
2022-09-21T00:40:37.626Z,100.00
2022-09-21T00:41:39.626Z,100.00
2022-09-21T00:42:41.702Z,100.00
2022-09-21T00:43:50.246Z,100.00
2022-09-21T00:44:52.721Z,100.00
2022-09-21T00:46:04.645Z,100.00
2022-09-21T00:47:13.155Z,100.00
2022-09-21T00:48:15.414Z,100.00
2022-09-21T00:49:17.896Z,100.00
2022-09-21T00:50:24.933Z,100.00
2022-09-21T00:51:27.186Z,100.00
2022-09-21T00:52:32.779Z,100.00
2022-09-21T00:53:37.063Z,100.00
2022-09-21T00:54:42.714Z,100.00
2022-09-21T00:55:48.376Z,100.00
2022-09-21T00:56:50.716Z,100.00
2022-09-21T00:57:56.243Z,100.00
2022-09-21T00:58:58.298Z,100.00
2022-09-21T01:00:03.841Z,100.00
2022-09-21T01:01:06.058Z,100.00
2022-09-21T01:02:08.475Z,100.00
2022-09-21T01:03:13.345Z,100.00
2022-09-21T01:04:16.077Z,100.00
2022-09-21T01:05:18.132Z,100.00
2022-09-21T01:06:20.815Z,100.00
2022-09-21T01:07:26.404Z,100.00
2022-09-21T01:08:29.224Z,100.00
2022-09-21T01:09:32.156Z,100.00
2022-09-21T01:11:00.090Z,100.00
2022-09-21T01:12:17.593Z,100.00
2022-09-21T01:13:45.558Z,100.00
2022-09-21T01:16:16.881Z,100.00
2022-09-21T01:17:48.451Z,100.00
2022-09-21T01:20:22.899Z,100.00
2022-09-21T01:21:34.445Z,100.00
2022-09-21T01:23:00.976Z,100.00
2022-09-21T01:24:27.874Z,99.92
2022-09-21T01:25:42.721Z,99.76
2022-09-21T01:27:09.857Z,99.50
2022-09-21T01:28:21.436Z,99.31
2022-09-21T01:29:36.374Z,98.98
2022-09-21T01:30:45.673Z,99.07
2022-09-21T01:32:05.162Z,98.85
2022-09-21T01:33:17.093Z,98.82
2022-09-21T01:34:37.604Z,98.86
2022-09-21T01:35:46.252Z,99.07
2022-09-21T01:36:51.484Z,99.24
2022-09-21T01:37:59.871Z,99.34
2022-09-21T01:39:08.218Z,99.39
2022-09-21T01:40:24.181Z,99.31
2022-09-21T01:41:29.919Z,99.31
2022-09-21T01:42:35.066Z,99.56
2022-09-21T01:43:43.457Z,99.59
2022-09-21T01:44:47.512Z,99.40
2022-09-21T01:45:53.087Z,99.42
2022-09-21T01:46:58.256Z,99.47
2022-09-21T01:48:01.067Z,99.18
2022-09-21T01:49:06.775Z,98.77
2022-09-21T01:50:11.300Z,98.92
2022-09-21T01:51:16.027Z,98.44
2022-09-21T01:52:24.378Z,98.37
2022-09-21T01:53:42.122Z,98.45
2022-09-21T01:54:51.831Z,98.62
2022-09-21T01:55:57.414Z,98.77
2022-09-21T01:57:05.869Z,98.60
2022-09-21T01:58:14.658Z,98.45
2022-09-21T01:59:23.196Z,98.66
2022-09-21T02:00:27.023Z,98.89
2022-09-21T02:01:32.661Z,99.00
2022-09-21T02:02:38.316Z,99.07
2022-09-21T02:03:43.926Z,99.05
2022-09-21T02:04:46.027Z,99.19
2022-09-21T02:05:48.168Z,99.19
2022-09-21T02:06:51.169Z,99.47
2022-09-21T02:07:54.941Z,99.56
2022-09-21T02:08:57.263Z,99.49
2022-09-21T02:10:00.931Z,99.60
2022-09-21T02:11:05.005Z,99.37
2022-09-21T02:12:07.440Z,98.95
2022-09-21T02:13:10.611Z,98.52
2022-09-21T02:14:16.159Z,98.52
2022-09-21T02:15:21.839Z,98.44
2022-09-21T02:16:46.156Z,98.26
2022-09-21T02:17:54.581Z,98.40
2022-09-21T02:19:15.507Z,98.46
2022-09-21T02:20:21.394Z,98.56
2022-09-21T02:21:39.257Z,98.61
2022-09-21T02:23:03.165Z,98.74
2022-09-21T02:25:29.147Z,98.60
2022-09-21T02:26:37.978Z,98.58
2022-09-21T02:27:58.866Z,98.40
2022-09-21T02:29:25.554Z,98.35
2022-09-21T02:30:29.515Z,98.07
2022-09-21T02:31:53.168Z,97.94
2022-09-21T02:33:15.311Z,97.69
2022-09-21T02:34:35.481Z,97.61
2022-09-21T02:35:47.217Z,98.19
2022-09-21T02:36:57.166Z,98.31
2022-09-21T02:38:06.363Z,98.09
2022-09-21T02:39:17.645Z,97.91
2022-09-21T02:40:26.426Z,97.78
2022-09-21T02:41:32.182Z,98.03
2022-09-21T02:42:38.704Z,97.98
2022-09-21T02:44:01.344Z,98.22
2022-09-21T02:45:12.987Z,98.26
2022-09-21T02:46:28.000Z,97.96
2022-09-21T02:47:40.022Z,98.21
2022-09-21T02:48:52.662Z,98.39
2022-09-21T02:50:01.202Z,98.65
2022-09-21T02:51:06.856Z,99.29
2022-09-21T02:52:12.441Z,99.51
2022-09-21T02:53:18.142Z,99.51
2022-09-21T02:54:23.829Z,99.63
2022-09-21T02:55:27.132Z,99.46
2022-09-21T02:56:31.890Z,99.34
2022-09-21T02:57:35.774Z,99.31
2022-09-21T02:58:42.374Z,99.23
2022-09-21T02:59:44.652Z,99.31
2022-09-21T03:00:47.022Z,99.32
2022-09-21T03:01:50.660Z,99.29
2022-09-21T03:02:52.747Z,99.78
2022-09-21T03:03:55.731Z,100.00
2022-09-21T03:04:58.806Z,100.00
2022-09-21T03:06:01.660Z,100.00
2022-09-21T03:07:03.686Z,100.00
2022-09-21T03:08:06.620Z,100.00
2022-09-21T03:09:08.671Z,100.00
2022-09-21T03:10:11.686Z,100.00
2022-09-21T03:11:18.157Z,100.00
2022-09-21T03:12:20.381Z,100.00
2022-09-21T03:13:22.776Z,100.00
2022-09-21T03:14:25.200Z,100.00
2022-09-21T03:15:27.237Z,100.00
2022-09-21T03:16:29.375Z,100.00
2022-09-21T03:17:31.532Z,100.00
2022-09-21T03:18:33.833Z,100.00
2022-09-21T03:19:35.667Z,100.00
2022-09-21T03:20:45.367Z,100.00
2022-09-21T03:21:47.292Z,100.00
2022-09-21T03:22:49.109Z,100.00
2022-09-21T03:23:51.092Z,100.00
2022-09-21T03:24:52.969Z,99.80
2022-09-21T03:25:55.453Z,99.84
2022-09-21T03:26:57.397Z,100.00
2022-09-21T03:27:59.571Z,100.00
2022-09-21T03:29:01.887Z,100.00
2022-09-21T03:30:06.840Z,99.85
2022-09-21T03:31:09.345Z,99.94
2022-09-21T03:32:11.999Z,99.88
2022-09-21T03:33:13.994Z,99.71
2022-09-21T03:34:15.987Z,100.00
2022-09-21T03:35:19.294Z,100.00
2022-09-21T03:36:21.917Z,100.00
2022-09-21T03:37:23.696Z,100.00
2022-09-21T03:38:26.030Z,100.00
2022-09-21T03:39:28.007Z,100.00
2022-09-21T03:40:30.762Z,100.00
2022-09-21T03:41:32.841Z,100.00
2022-09-21T03:42:34.696Z,100.00
2022-09-21T03:43:36.554Z,99.89
2022-09-21T03:44:38.577Z,99.89
2022-09-21T03:45:40.985Z,99.85
2022-09-21T03:46:43.699Z,99.75
2022-09-21T03:47:46.632Z,99.88
2022-09-21T03:48:48.574Z,99.88
2022-09-21T03:49:50.506Z,100.00
2022-09-21T03:50:53.274Z,100.00
2022-09-21T03:51:55.249Z,100.00
2022-09-21T03:52:57.913Z,100.00
2022-09-21T03:53:59.915Z,100.00
2022-09-21T03:55:01.905Z,99.96
2022-09-21T03:56:04.272Z,99.85
2022-09-21T03:57:06.095Z,99.76
2022-09-21T03:58:08.986Z,99.37
2022-09-21T03:59:14.109Z,99.31
2022-09-21T04:00:17.431Z,99.38
2022-09-21T04:01:20.102Z,99.28
2022-09-21T04:02:22.113Z,99.36
2022-09-21T04:03:27.883Z,99.45
2022-09-21T04:04:30.464Z,99.35
2022-09-21T04:05:32.490Z,99.12
2022-09-21T04:06:34.495Z,98.95
2022-09-21T04:07:37.240Z,98.80
2022-09-21T04:08:39.964Z,98.67
2022-09-21T04:09:42.422Z,98.73
2022-09-21T04:10:45.517Z,98.93
2022-09-21T04:11:47.626Z,98.96
2022-09-21T04:12:49.425Z,98.88
2022-09-21T04:13:53.031Z,98.91
2022-09-21T04:14:54.965Z,99.00
2022-09-21T04:15:56.933Z,98.85
2022-09-21T04:16:58.994Z,98.56
2022-09-21T04:18:00.946Z,98.59
2022-09-21T04:19:04.020Z,98.69
2022-09-21T04:20:07.689Z,98.72
2022-09-21T04:21:09.627Z,98.66
2022-09-21T04:22:12.119Z,98.70
2022-09-21T04:23:14.141Z,98.94
2022-09-21T04:24:18.212Z,98.88
2022-09-21T04:25:23.020Z,98.92
2022-09-21T04:26:33.419Z,99.18
2022-09-21T04:27:37.287Z,99.08
2022-09-21T04:28:41.041Z,98.74
2022-09-21T04:29:44.950Z,98.54
2022-09-21T04:30:53.790Z,98.35
2022-09-21T04:31:57.783Z,98.48
2022-09-21T04:33:01.819Z,98.56
2022-09-21T04:34:06.393Z,98.43
2022-09-21T04:35:10.562Z,98.31
2022-09-21T04:36:15.786Z,98.42
2022-09-21T04:37:19.393Z,98.51
2022-09-21T04:38:23.330Z,98.32
2022-09-21T04:39:27.492Z,98.56
2022-09-21T04:40:31.339Z,98.97
2022-09-21T04:41:33.398Z,99.00
2022-09-21T04:42:37.018Z,99.00
2022-09-21T04:43:41.122Z,99.02
2022-09-21T04:44:44.132Z,99.12
2022-09-21T04:45:46.646Z,98.92
2022-09-21T04:46:49.022Z,98.93
2022-09-21T04:47:50.845Z,98.73
2022-09-21T04:48:53.876Z,98.68
2022-09-21T04:49:57.715Z,98.74
2022-09-21T04:50:59.494Z,98.62
2022-09-21T04:52:01.556Z,98.42
2022-09-21T04:53:03.899Z,98.51
2022-09-21T04:54:06.358Z,98.53
2022-09-21T04:55:08.436Z,98.53
2022-09-21T04:56:13.909Z,98.40
2022-09-21T04:57:16.290Z,98.33
2022-09-21T04:58:22.441Z,98.36
2022-09-21T04:59:22.219Z,98.46
2022-09-21T05:00:24.257Z,98.13
2022-09-21T05:01:27.630Z,98.28
2022-09-21T05:02:29.514Z,98.40
2022-09-21T05:03:31.465Z,98.74
2022-09-21T05:04:33.327Z,98.79
2022-09-21T05:05:35.099Z,98.57
2022-09-21T05:06:36.943Z,98.60
2022-09-21T05:07:38.967Z,98.54
2022-09-21T05:08:40.952Z,98.39
2022-09-21T05:09:43.041Z,98.44
2022-09-21T05:10:45.460Z,98.21
2022-09-21T05:11:47.239Z,98.05
2022-09-21T05:12:49.121Z,97.86
2022-09-21T05:13:50.829Z,97.60
2022-09-21T05:14:52.712Z,97.46
2022-09-21T05:15:54.672Z,97.02
2022-09-21T05:16:58.724Z,97.02
2022-09-21T05:18:00.354Z,97.17
2022-09-21T05:19:03.004Z,97.04
2022-09-21T05:20:05.768Z,97.05
2022-09-21T05:21:11.614Z,97.05
2022-09-21T05:22:14.773Z,97.16
2022-09-21T05:23:16.955Z,96.73
2022-09-21T05:24:19.394Z,96.56
2022-09-21T05:25:21.313Z,96.75
2022-09-21T05:26:24.127Z,96.99
2022-09-21T05:27:26.202Z,97.42
2022-09-21T05:28:28.789Z,97.68
2022-09-21T05:29:31.730Z,97.79
2022-09-21T05:30:34.891Z,98.05
2022-09-21T05:31:47.993Z,97.72
2022-09-21T05:32:59.896Z,98.05
2022-09-21T05:34:36.207Z,98.11
2022-09-21T05:35:57.147Z,97.99
2022-09-21T05:37:36.467Z,98.08
2022-09-21T05:38:38.758Z,98.45
2022-09-21T05:39:41.425Z,98.43
2022-09-21T05:40:44.874Z,98.17
2022-09-21T05:41:47.927Z,97.92
2022-09-21T05:42:50.463Z,97.65
2022-09-21T05:43:53.295Z,97.54
2022-09-21T05:44:55.805Z,97.55
2022-09-21T05:46:07.373Z,97.31
2022-09-21T05:47:15.967Z,97.23
2022-09-21T05:48:24.986Z,97.02
2022-09-21T05:49:51.953Z,97.25
2022-09-21T05:52:23.130Z,98.04
2022-09-21T05:54:04.960Z,98.18
2022-09-21T05:55:30.802Z,98.08
2022-09-21T05:56:59.287Z,97.85
2022-09-21T05:58:19.727Z,98.08
2022-09-21T05:59:37.403Z,98.07
2022-09-21T06:00:58.148Z,98.13
2022-09-21T06:02:16.755Z,98.32
2022-09-21T06:03:25.195Z,98.65
2022-09-21T06:04:28.349Z,98.72
2022-09-21T06:05:30.605Z,98.63
2022-09-21T06:06:33.602Z,98.94
2022-09-21T06:07:35.465Z,99.11
2022-09-21T06:08:37.417Z,98.92
2022-09-21T06:09:43.046Z,98.94
2022-09-21T06:10:43.481Z,99.23
2022-09-21T06:11:45.379Z,99.25
2022-09-21T06:12:47.281Z,99.01
2022-09-21T06:13:48.991Z,98.87
2022-09-21T06:14:52.786Z,98.37
2022-09-21T06:15:55.805Z,98.45
2022-09-21T06:16:57.922Z,98.45
2022-09-21T06:18:00.028Z,98.26
2022-09-21T06:19:01.684Z,98.12
2022-09-21T06:20:05.334Z,98.01
2022-09-21T06:21:09.296Z,97.61
2022-09-21T06:22:11.346Z,97.40
2022-09-21T06:23:13.814Z,97.27
2022-09-21T06:24:16.561Z,97.42
2022-09-21T06:25:18.740Z,97.42
2022-09-21T06:26:20.628Z,97.52
2022-09-21T06:27:22.414Z,97.63
2022-09-21T06:28:24.879Z,97.57
2022-09-21T06:29:26.583Z,97.48
2022-09-21T06:30:28.530Z,97.42
2022-09-21T06:31:30.545Z,97.36
2022-09-21T06:32:32.826Z,97.20
2022-09-21T06:33:35.982Z,98.01
2022-09-21T06:34:38.297Z,97.27
2022-09-21T06:35:42.391Z,97.31
2022-09-21T06:36:44.581Z,97.11
2022-09-21T06:37:46.298Z,97.07
2022-09-21T06:38:47.923Z,96.21
2022-09-21T06:39:49.702Z,95.61
2022-09-21T06:40:52.990Z,95.32
2022-09-21T06:41:55.450Z,95.16
2022-09-21T06:42:59.250Z,94.96
2022-09-21T06:44:02.281Z,94.50
2022-09-21T06:45:05.606Z,94.63
2022-09-21T06:46:08.321Z,94.79
2022-09-21T06:47:10.278Z,95.12
2022-09-21T06:48:12.006Z,94.40
2022-09-21T06:49:15.031Z,94.62
2022-09-21T06:50:17.618Z,93.74
2022-09-21T06:51:21.598Z,93.56
2022-09-21T06:52:24.052Z,93.43
2022-09-21T06:53:28.057Z,93.37
2022-09-21T06:54:30.442Z,92.97
2022-09-21T06:55:32.341Z,93.42
2022-09-21T06:56:34.749Z,93.55
2022-09-21T06:57:36.764Z,94.41
2022-09-21T06:58:38.512Z,95.28
2022-09-21T06:59:40.798Z,95.08
2022-09-21T07:00:42.920Z,94.75
2022-09-21T07:01:44.930Z,94.87
2022-09-21T07:02:46.913Z,94.39
2022-09-21T07:03:50.667Z,95.19
2022-09-21T07:04:52.494Z,94.97
2022-09-21T07:05:54.801Z,94.57
2022-09-21T07:06:57.227Z,94.40
2022-09-21T07:07:59.401Z,94.24
2022-09-21T07:10:07.721Z,94.90
2022-09-21T07:11:11.756Z,95.12
2022-09-21T07:12:13.795Z,94.39
2022-09-21T07:13:15.770Z,94.07
2022-09-21T07:14:17.512Z,94.26
2022-09-21T07:15:20.550Z,94.49
2022-09-21T07:16:22.462Z,93.92
2022-09-21T07:17:25.078Z,93.84
2022-09-21T07:18:27.470Z,93.88
2022-09-21T07:19:29.350Z,93.81
2022-09-21T07:20:31.195Z,93.23
2022-09-21T07:21:33.054Z,94.47
2022-09-21T07:22:36.061Z,94.47
2022-09-21T07:23:38.703Z,94.43
2022-09-21T07:24:40.502Z,95.14
2022-09-21T07:25:43.852Z,94.95
2022-09-21T07:26:45.966Z,94.69
2022-09-21T07:27:47.627Z,94.99
2022-09-21T07:28:49.470Z,95.73
2022-09-21T07:29:52.020Z,95.57
2022-09-21T07:30:54.384Z,96.26
2022-09-21T07:31:56.317Z,95.75
2022-09-21T07:32:58.200Z,95.51
2022-09-21T07:33:59.938Z,96.38
2022-09-21T07:35:01.775Z,96.38
2022-09-21T07:36:05.400Z,96.52
2022-09-21T07:37:07.440Z,95.82
2022-09-21T07:38:09.216Z,96.12
2022-09-21T07:39:11.067Z,96.14
2022-09-21T07:40:13.682Z,95.56
2022-09-21T07:41:15.556Z,95.75
2022-09-21T07:42:17.474Z,95.80
2022-09-21T07:43:19.250Z,96.43
2022-09-21T07:44:21.481Z,95.69
2022-09-21T07:45:23.316Z,95.23
2022-09-21T07:46:25.992Z,95.10
2022-09-21T07:47:28.026Z,95.11
2022-09-21T07:48:31.807Z,95.94
2022-09-21T07:49:33.725Z,95.22
2022-09-21T07:50:35.688Z,94.98
2022-09-21T07:51:37.325Z,94.93
2022-09-21T07:52:38.967Z,95.19
2022-09-21T07:53:42.712Z,95.67
2022-09-21T07:54:44.508Z,95.00
2022-09-21T07:55:46.318Z,94.85
2022-09-21T07:56:48.380Z,94.85
2022-09-21T07:57:50.825Z,94.75
2022-09-21T07:58:53.936Z,96.52
2022-09-21T07:59:56.041Z,96.61
2022-09-21T08:00:58.755Z,95.25
2022-09-21T08:02:00.699Z,95.84
2022-09-21T08:03:02.972Z,94.80
2022-09-21T08:04:07.153Z,95.04
2022-09-21T08:05:09.206Z,94.07
2022-09-21T08:06:11.691Z,94.07
2022-09-21T08:07:13.595Z,93.35
2022-09-21T08:08:16.919Z,93.43
2022-09-21T08:09:18.867Z,94.26
2022-09-21T08:10:20.812Z,94.75
2022-09-21T08:11:24.051Z,94.85
2022-09-21T08:12:26.232Z,95.57
2022-09-21T08:13:28.147Z,95.15
2022-09-21T08:14:29.962Z,94.58
2022-09-21T08:15:48.761Z,94.86
2022-09-21T08:16:37.662Z,95.32
2022-09-21T08:17:40.231Z,95.77
2022-09-21T08:18:42.480Z,95.77
2022-09-21T08:19:44.347Z,94.55
2022-09-21T08:20:49.959Z,94.40
2022-09-21T08:21:57.160Z,94.39
2022-09-21T08:22:57.253Z,94.17
2022-09-21T08:23:59.053Z,94.22
2022-09-21T08:25:00.936Z,94.69
2022-09-21T08:26:04.558Z,95.11
2022-09-21T08:27:07.426Z,95.14
2022-09-21T08:28:10.105Z,94.59
2022-09-21T08:29:12.350Z,95.41
2022-09-21T08:30:18.404Z,95.79
2022-09-21T08:31:22.960Z,96.16
2022-09-21T08:32:49.504Z,95.95
2022-09-21T08:33:29.781Z,95.72
2022-09-21T08:34:32.974Z,95.89
2022-09-21T08:35:36.221Z,95.41
2022-09-21T08:36:38.164Z,95.47
2022-09-21T08:37:40.299Z,95.34
2022-09-21T08:38:42.086Z,95.04
2022-09-21T08:39:43.737Z,94.60
2022-09-21T08:40:48.824Z,94.13
2022-09-21T08:42:09.589Z,94.62
2022-09-21T08:43:16.139Z,95.07
2022-09-21T08:44:34.770Z,94.85
2022-09-21T08:45:45.473Z,94.89
2022-09-21T08:46:53.235Z,94.21
2022-09-21T08:47:59.459Z,93.86
2022-09-21T08:49:05.612Z,93.39
2022-09-21T08:50:11.330Z,92.73
2022-09-21T08:51:17.040Z,92.23
2022-09-21T08:52:23.119Z,92.66
2022-09-21T08:53:28.633Z,92.45
2022-09-21T08:54:52.033Z,92.26
2022-09-21T08:55:58.226Z,91.69
2022-09-21T08:57:06.317Z,90.90
2022-09-21T08:59:23.895Z,91.80
2022-09-21T09:00:28.995Z,91.71
2022-09-21T09:01:40.483Z,91.13
2022-09-21T09:02:55.713Z,90.31
2022-09-21T09:05:50.423Z,90.42
2022-09-21T09:06:59.384Z,89.83
2022-09-21T09:08:14.676Z,89.41
2022-09-21T09:09:52.468Z,89.05
2022-09-21T09:11:20.180Z,88.35
2022-09-21T09:12:40.739Z,87.55
2022-09-21T09:14:04.531Z,85.94
2022-09-21T09:15:22.420Z,85.76
2022-09-21T09:16:37.706Z,84.91
2022-09-21T09:17:46.435Z,85.14
2022-09-21T09:19:00.738Z,85.21
2022-09-21T09:20:06.358Z,85.33
2022-09-21T09:21:31.269Z,85.85
2022-09-21T09:22:33.537Z,85.05
2022-09-21T09:23:42.057Z,84.01
2022-09-21T09:24:49.821Z,84.14
2022-09-21T09:25:56.496Z,84.83
2022-09-21T09:27:05.890Z,84.28
2022-09-21T09:28:35.989Z,85.92
2022-09-21T09:29:51.573Z,87.41
2022-09-21T09:31:04.023Z,85.62
2022-09-21T09:32:12.863Z,85.60
2022-09-21T09:33:24.489Z,85.85
2022-09-21T09:34:32.776Z,86.18
2022-09-21T09:35:41.388Z,86.49
2022-09-21T09:36:58.382Z,86.69
2022-09-21T09:37:55.414Z,86.70
2022-09-21T09:39:03.974Z,86.09
2022-09-21T09:40:07.175Z,86.40
2022-09-21T09:41:30.790Z,86.25
2022-09-21T09:42:39.286Z,85.09
2022-09-21T09:43:50.573Z,84.14
2022-09-21T09:45:18.656Z,84.27
2022-09-21T09:46:37.740Z,83.20
2022-09-21T09:47:52.306Z,83.25
2022-09-21T09:49:19.563Z,83.40
2022-09-21T09:50:31.038Z,82.75
2022-09-21T09:51:33.368Z,81.92
2022-09-21T09:52:36.046Z,81.69
2022-09-21T09:53:38.316Z,81.91
2022-09-21T09:54:40.622Z,81.28
2022-09-21T09:55:51.753Z,80.50
2022-09-21T09:56:54.206Z,80.45
2022-09-21T09:57:57.104Z,81.24
2022-09-21T09:59:03.671Z,80.60
2022-09-21T10:00:07.624Z,80.81
2022-09-21T10:01:44.371Z,80.17
2022-09-21T10:02:58.112Z,80.59
2022-09-21T10:04:13.039Z,81.06
2022-09-21T10:05:24.536Z,81.44
2022-09-21T10:06:33.016Z,82.13
2022-09-21T10:07:38.510Z,82.58
2022-09-21T10:08:46.103Z,82.62
2022-09-21T10:09:47.921Z,81.80
2022-09-21T10:10:50.201Z,81.17
2022-09-21T10:11:54.788Z,81.19
2022-09-21T10:13:07.020Z,81.82
2022-09-21T10:14:11.924Z,82.13
2022-09-21T10:15:19.838Z,82.40
2022-09-21T10:16:23.225Z,82.96
2022-09-21T10:17:25.797Z,82.14
2022-09-21T10:18:40.308Z,82.72
2022-09-21T10:19:42.386Z,82.71
2022-09-21T10:20:53.887Z,82.84
2022-09-21T10:22:01.074Z,82.27
2022-09-21T10:23:03.798Z,83.41
2022-09-21T10:24:31.511Z,83.20
2022-09-21T10:25:39.505Z,82.81
2022-09-21T10:26:47.922Z,83.77
2022-09-21T10:27:51.845Z,83.34
2022-09-21T10:29:02.771Z,82.88
2022-09-21T10:30:08.689Z,83.00
2022-09-21T10:31:20.215Z,84.25
2022-09-21T10:33:45.961Z,84.95
2022-09-21T10:35:00.868Z,85.15
2022-09-21T10:36:03.578Z,85.64
2022-09-21T10:37:24.285Z,85.78
2022-09-21T10:38:26.529Z,85.79
2022-09-21T10:39:30.997Z,85.49
2022-09-21T10:40:37.933Z,86.17
2022-09-21T10:41:40.252Z,86.63
2022-09-21T10:42:42.763Z,86.94
2022-09-21T10:43:45.085Z,86.99
2022-09-21T10:44:50.315Z,86.86
2022-09-21T10:45:56.081Z,86.94
2022-09-21T10:47:01.863Z,86.98
2022-09-21T10:48:16.881Z,87.30
2022-09-21T10:49:23.032Z,86.98
2022-09-21T10:50:31.805Z,86.40
2022-09-21T10:51:33.801Z,87.12
2022-09-21T10:52:39.360Z,87.22
2022-09-21T10:53:45.814Z,87.19
2022-09-21T10:54:52.557Z,86.88
2022-09-21T10:56:22.624Z,87.10
2022-09-21T10:57:14.683Z,86.98
2022-09-21T10:58:16.727Z,87.49
2022-09-21T10:59:23.320Z,87.64
2022-09-21T11:00:28.665Z,87.43
2022-09-21T11:01:31.134Z,88.42
2022-09-21T11:02:36.769Z,89.07
2022-09-21T11:03:49.141Z,88.81
2022-09-21T11:04:55.080Z,89.79
2022-09-21T11:06:16.259Z,90.40
2022-09-21T11:07:30.724Z,91.16
2022-09-21T11:08:42.171Z,92.34
2022-09-21T11:09:56.774Z,92.92
2022-09-21T11:11:17.867Z,94.10
2022-09-21T11:12:23.411Z,95.09
2022-09-21T11:13:34.788Z,95.80
2022-09-21T11:14:46.330Z,96.43
2022-09-21T11:15:58.391Z,96.33
2022-09-21T11:17:19.687Z,97.20
2022-09-21T11:18:42.158Z,97.44
2022-09-21T11:19:50.924Z,97.79
2022-09-21T11:20:56.602Z,97.04
2022-09-21T11:22:11.247Z,97.43
2022-09-21T11:23:45.317Z,97.88
2022-09-21T11:25:09.928Z,97.68
2022-09-21T11:26:19.089Z,97.04
2022-09-21T11:27:37.610Z,97.15
2022-09-21T11:29:01.492Z,97.45
2022-09-21T11:30:13.339Z,97.08
2022-09-21T11:31:25.071Z,97.10
2022-09-21T11:32:50.825Z,97.14
2022-09-21T11:34:15.834Z,97.23
2022-09-21T11:35:24.361Z,96.36
2022-09-21T11:36:53.165Z,96.67
2022-09-21T11:38:14.076Z,96.35
2022-09-21T11:42:53.070Z,93.93
2022-09-21T11:44:21.471Z,93.46
2022-09-21T11:45:30.231Z,93.10
2022-09-21T11:46:48.925Z,92.45
2022-09-21T11:47:54.622Z,91.52
2022-09-21T11:49:03.885Z,90.71
2022-09-21T11:50:32.133Z,90.68
2022-09-21T11:51:41.257Z,90.51
2022-09-21T11:53:05.766Z,90.00
2022-09-21T11:54:45.003Z,89.37
2022-09-21T11:56:06.885Z,89.43
2022-09-21T11:57:36.692Z,89.94
2022-09-21T11:58:54.267Z,89.91
2022-09-21T12:00:05.113Z,90.01
2022-09-21T12:01:37.936Z,89.64
2022-09-21T12:02:52.863Z,90.22
2022-09-21T12:03:58.814Z,90.26
2022-09-21T12:05:26.619Z,90.63
2022-09-21T12:06:46.732Z,89.96
2022-09-21T12:08:19.505Z,89.88
2022-09-21T12:09:34.831Z,90.11
2022-09-21T12:10:44.252Z,88.03
2022-09-21T12:11:50.927Z,87.81
2022-09-21T12:12:59.362Z,87.41
2022-09-21T12:14:26.457Z,87.22
2022-09-21T12:15:48.440Z,86.06
2022-09-21T12:18:31.243Z,86.44
2022-09-21T12:21:11.411Z,85.93
2022-09-21T12:22:18.247Z,85.96
2022-09-21T12:23:30.993Z,85.67
2022-09-21T12:24:36.496Z,85.78
2022-09-21T12:25:41.985Z,85.72
2022-09-21T12:26:56.841Z,86.11
2022-09-21T12:28:29.729Z,86.18
2022-09-21T12:29:35.922Z,86.28
2022-09-21T12:30:41.255Z,86.50
2022-09-21T12:31:49.929Z,86.00
2022-09-21T12:32:55.939Z,86.02
2022-09-21T12:34:03.542Z,85.62
2022-09-21T12:35:09.118Z,86.34
2022-09-21T12:36:18.802Z,85.94
2022-09-21T12:37:39.647Z,85.75
2022-09-21T12:38:55.106Z,85.49
2022-09-21T12:40:06.708Z,84.82
2022-09-21T12:41:18.616Z,85.68
2022-09-21T12:42:48.412Z,85.19
2022-09-21T12:43:57.398Z,84.92
2022-09-21T12:45:21.161Z,84.19
2022-09-21T12:46:32.848Z,84.82
2022-09-21T12:47:52.797Z,83.82
2022-09-21T12:49:01.146Z,84.07
2022-09-21T12:50:06.751Z,84.30
2022-09-21T12:51:16.486Z,84.16
2022-09-21T12:52:24.950Z,83.95
2022-09-21T12:53:30.900Z,83.33
2022-09-21T12:54:43.549Z,81.78
2022-09-21T12:55:58.058Z,81.02
2022-09-21T12:58:29.317Z,80.35
2022-09-21T13:01:13.935Z,79.92
2022-09-21T13:02:25.874Z,79.65
2022-09-21T13:03:34.953Z,79.55
2022-09-21T13:05:00.687Z,80.58
2022-09-21T13:06:27.691Z,80.81
2022-09-21T13:07:42.077Z,81.23
2022-09-21T13:08:46.842Z,81.44
2022-09-21T13:09:50.256Z,81.69
2022-09-21T13:11:00.980Z,80.88
2022-09-21T13:12:10.525Z,81.10
2022-09-21T13:13:28.053Z,80.99
2022-09-21T13:14:33.302Z,81.14
2022-09-21T13:15:45.042Z,81.78
2022-09-21T13:16:51.767Z,81.46
2022-09-21T13:18:05.712Z,81.00
2022-09-21T13:19:17.149Z,80.44
2022-09-21T13:20:21.216Z,80.79
2022-09-21T13:21:29.488Z,80.50
2022-09-21T13:22:36.584Z,80.86
2022-09-21T13:23:39.908Z,80.98
2022-09-21T13:24:43.768Z,80.54
2022-09-21T13:26:01.403Z,79.30
2022-09-21T13:27:03.581Z,79.99
2022-09-21T13:28:17.516Z,80.24
2022-09-21T13:29:23.126Z,80.21
2022-09-21T13:30:35.317Z,81.07
2022-09-21T13:31:59.008Z,81.48
2022-09-21T13:33:04.012Z,81.33
2022-09-21T13:34:25.128Z,81.16
2022-09-21T13:35:47.990Z,80.19
2022-09-21T13:37:12.181Z,78.29
2022-09-21T13:38:41.964Z,75.66
2022-09-21T13:40:02.327Z,75.99
2022-09-21T13:41:11.244Z,75.45
2022-09-21T13:42:34.130Z,73.24
2022-09-21T13:43:48.483Z,72.62
2022-09-21T13:44:50.487Z,71.71
2022-09-21T13:45:55.785Z,71.46
2022-09-21T13:46:58.395Z,70.85
2022-09-21T13:48:04.307Z,69.42
2022-09-21T13:49:15.760Z,68.72
2022-09-21T13:50:33.128Z,67.64
2022-09-21T13:51:37.027Z,68.74
2022-09-21T13:52:48.828Z,69.69
2022-09-21T13:53:54.399Z,69.96
2022-09-21T13:55:02.957Z,69.88
2022-09-21T13:56:11.380Z,70.70
2022-09-21T13:57:32.066Z,71.20
2022-09-21T13:58:37.681Z,71.52
2022-09-21T13:59:42.861Z,72.67
2022-09-21T14:00:58.473Z,74.09
2022-09-21T14:02:03.101Z,75.99
2022-09-21T14:03:28.542Z,76.77
2022-09-21T14:04:36.111Z,77.15
2022-09-21T14:05:44.389Z,77.36
2022-09-21T14:06:49.399Z,79.06
2022-09-21T14:08:00.769Z,79.81
2022-09-21T14:09:09.015Z,80.00
2022-09-21T14:10:18.410Z,79.71
2022-09-21T14:11:23.912Z,78.40
2022-09-21T14:12:28.925Z,76.08
2022-09-21T14:13:43.261Z,75.22
2022-09-21T14:14:49.940Z,71.88
2022-09-21T14:15:52.065Z,70.07
2022-09-21T14:16:59.927Z,69.48
2022-09-21T14:18:14.266Z,68.10
2022-09-21T14:19:22.829Z,68.11
2022-09-21T14:20:35.836Z,68.09
2022-09-21T14:21:36.616Z,66.75
2022-09-21T14:22:40.214Z,65.77
2022-09-21T14:24:03.910Z,65.89
2022-09-21T14:25:28.891Z,65.29
2022-09-21T14:26:34.110Z,65.40
2022-09-21T14:27:46.058Z,65.74
2022-09-21T14:28:50.959Z,66.29
2022-09-21T14:29:56.240Z,65.79
2022-09-21T14:31:02.024Z,64.83
2022-09-21T14:32:07.209Z,66.50
2022-09-21T14:33:22.099Z,65.90
2022-09-21T14:34:27.993Z,66.48
2022-09-21T14:35:36.665Z,66.75
2022-09-21T14:36:44.651Z,67.29
2022-09-21T14:37:50.090Z,67.16
2022-09-21T14:38:55.776Z,67.42
2022-09-21T14:40:02.351Z,66.83
2022-09-21T14:41:07.115Z,66.11
2022-09-21T14:42:18.500Z,66.59
2022-09-21T14:43:32.821Z,67.03
2022-09-21T14:44:36.805Z,67.76
2022-09-21T14:46:12.773Z,69.43
2022-09-21T14:47:31.299Z,68.54